sensor_id;sensor_type;location;lat;lon;timestamp;P1;durP1;ratioP1;P2;durP2;ratioP2
81952;SDS011;71454;55.476;14.282;2024-03-22T00:01:28;32.05;;;10.10;;
81952;SDS011;71454;55.476;14.282;2024-03-22T00:03:53;26.55;;;10.18;;
81952;SDS011;71454;55.476;14.282;2024-03-22T00:06:18;28.38;;;8.65;;
81952;SDS011;71454;55.476;14.282;2024-03-22T00:08:43;30.17;;;9.07;;
81952;SDS011;71454;55.476;14.282;2024-03-22T00:11:09;29.38;;;10.05;;
81952;SDS011;71454;55.476;14.282;2024-03-22T00:13:34;29.20;;;10.02;;
81952;SDS011;71454;55.476;14.282;2024-03-22T00:15:59;23.20;;;9.40;;
81952;SDS011;71454;55.476;14.282;2024-03-22T00:18:25;29.98;;;10.45;;
81952;SDS011;71454;55.476;14.282;2024-03-22T00:20:50;27.63;;;10.63;;
81952;SDS011;71454;55.476;14.282;2024-03-22T00:23:15;34.78;;;10.35;;
81952;SDS011;71454;55.476;14.282;2024-03-22T00:25:40;33.25;;;10.80;;
81952;SDS011;71454;55.476;14.282;2024-03-22T00:28:06;29.95;;;10.73;;
81952;SDS011;71454;55.476;14.282;2024-03-22T00:30:31;28.58;;;10.27;;
81952;SDS011;71454;55.476;14.282;2024-03-22T00:32:56;32.35;;;10.43;;
81952;SDS011;71454;55.476;14.282;2024-03-22T00:35:22;30.85;;;9.90;;
81952;SDS011;71454;55.476;14.282;2024-03-22T00:37:47;29.45;;;10.63;;
81952;SDS011;71454;55.476;14.282;2024-03-22T00:40:12;28.48;;;9.07;;
81952;SDS011;71454;55.476;14.282;2024-03-22T00:42:38;29.77;;;9.77;;
81952;SDS011;71454;55.476;14.282;2024-03-22T00:45:03;23.33;;;8.35;;
81952;SDS011;71454;55.476;14.282;2024-03-22T00:47:28;28.27;;;10.55;;
81952;SDS011;71454;55.476;14.282;2024-03-22T00:49:54;29.13;;;9.32;;
81952;SDS011;71454;55.476;14.282;2024-03-22T00:52:19;21.83;;;7.78;;
81952;SDS011;71454;55.476;14.282;2024-03-22T00:54:44;26.38;;;9.63;;
81952;SDS011;71454;55.476;14.282;2024-03-22T00:57:10;26.25;;;8.70;;
81952;SDS011;71454;55.476;14.282;2024-03-22T00:59:35;21.50;;;7.88;;
81952;SDS011;71454;55.476;14.282;2024-03-22T01:02:00;23.50;;;8.75;;
81952;SDS011;71454;55.476;14.282;2024-03-22T01:04:25;29.17;;;9.43;;
81952;SDS011;71454;55.476;14.282;2024-03-22T01:06:51;21.45;;;8.40;;
81952;SDS011;71454;55.476;14.282;2024-03-22T01:09:16;25.93;;;8.83;;
81952;SDS011;71454;55.476;14.282;2024-03-22T01:11:41;28.70;;;8.20;;
81952;SDS011;71454;55.476;14.282;2024-03-22T01:14:07;25.42;;;9.32;;
81952;SDS011;71454;55.476;14.282;2024-03-22T01:16:32;25.67;;;8.40;;
81952;SDS011;71454;55.476;14.282;2024-03-22T01:18:57;23.52;;;6.85;;
81952;SDS011;71454;55.476;14.282;2024-03-22T01:21:23;23.57;;;8.17;;
81952;SDS011;71454;55.476;14.282;2024-03-22T01:23:52;25.13;;;8.18;;
81952;SDS011;71454;55.476;14.282;2024-03-22T01:26:18;20.15;;;6.72;;
81952;SDS011;71454;55.476;14.282;2024-03-22T01:28:43;24.20;;;6.93;;
81952;SDS011;71454;55.476;14.282;2024-03-22T01:31:08;20.63;;;5.90;;
81952;SDS011;71454;55.476;14.282;2024-03-22T01:33:34;22.75;;;6.80;;
81952;SDS011;71454;55.476;14.282;2024-03-22T01:35:59;23.05;;;7.10;;
81952;SDS011;71454;55.476;14.282;2024-03-22T01:38:24;20.73;;;7.32;;
81952;SDS011;71454;55.476;14.282;2024-03-22T01:40:50;23.40;;;6.60;;
81952;SDS011;71454;55.476;14.282;2024-03-22T01:43:15;18.98;;;6.05;;
81952;SDS011;71454;55.476;14.282;2024-03-22T01:45:40;23.80;;;6.68;;
81952;SDS011;71454;55.476;14.282;2024-03-22T01:48:06;20.60;;;6.00;;
81952;SDS011;71454;55.476;14.282;2024-03-22T01:50:32;21.27;;;6.78;;
81952;SDS011;71454;55.476;14.282;2024-03-22T01:52:57;23.70;;;7.28;;
81952;SDS011;71454;55.476;14.282;2024-03-22T01:55:23;25.88;;;8.02;;
81952;SDS011;71454;55.476;14.282;2024-03-22T01:57:49;23.55;;;7.72;;
81952;SDS011;71454;55.476;14.282;2024-03-22T02:00:14;25.45;;;9.50;;
81952;SDS011;71454;55.476;14.282;2024-03-22T02:02:39;26.48;;;8.52;;
81952;SDS011;71454;55.476;14.282;2024-03-22T02:05:14;23.83;;;8.18;;
81952;SDS011;71454;55.476;14.282;2024-03-22T02:07:41;25.08;;;8.88;;
81952;SDS011;71454;55.476;14.282;2024-03-22T02:10:06;26.40;;;8.77;;
81952;SDS011;71454;55.476;14.282;2024-03-22T02:12:33;31.30;;;9.10;;
81952;SDS011;71454;55.476;14.282;2024-03-22T02:14:58;29.00;;;10.65;;
81952;SDS011;71454;55.476;14.282;2024-03-22T02:17:23;34.47;;;11.00;;
81952;SDS011;71454;55.476;14.282;2024-03-22T02:19:49;37.78;;;12.18;;
81952;SDS011;71454;55.476;14.282;2024-03-22T02:22:14;39.67;;;13.32;;
81952;SDS011;71454;55.476;14.282;2024-03-22T02:24:39;34.25;;;12.93;;
81952;SDS011;71454;55.476;14.282;2024-03-22T02:27:04;35.70;;;12.55;;
81952;SDS011;71454;55.476;14.282;2024-03-22T02:29:30;32.58;;;12.90;;
81952;SDS011;71454;55.476;14.282;2024-03-22T02:31:55;34.67;;;11.90;;
81952;SDS011;71454;55.476;14.282;2024-03-22T02:34:22;29.95;;;11.35;;
81952;SDS011;71454;55.476;14.282;2024-03-22T02:36:48;31.27;;;11.03;;
81952;SDS011;71454;55.476;14.282;2024-03-22T02:39:13;30.80;;;11.13;;
81952;SDS011;71454;55.476;14.282;2024-03-22T02:41:39;33.00;;;12.25;;
81952;SDS011;71454;55.476;14.282;2024-03-22T02:44:04;36.20;;;12.20;;
81952;SDS011;71454;55.476;14.282;2024-03-22T02:46:30;31.13;;;10.48;;
81952;SDS011;71454;55.476;14.282;2024-03-22T02:48:55;30.52;;;10.70;;
81952;SDS011;71454;55.476;14.282;2024-03-22T02:51:20;28.13;;;10.43;;
81952;SDS011;71454;55.476;14.282;2024-03-22T02:53:46;32.28;;;10.52;;
81952;SDS011;71454;55.476;14.282;2024-03-22T02:56:11;23.55;;;8.57;;
81952;SDS011;71454;55.476;14.282;2024-03-22T02:58:36;25.15;;;9.38;;
81952;SDS011;71454;55.476;14.282;2024-03-22T03:01:01;25.05;;;8.93;;
81952;SDS011;71454;55.476;14.282;2024-03-22T03:03:28;23.33;;;8.10;;
81952;SDS011;71454;55.476;14.282;2024-03-22T03:05:53;24.67;;;7.72;;
81952;SDS011;71454;55.476;14.282;2024-03-22T03:08:19;27.23;;;8.35;;
81952;SDS011;71454;55.476;14.282;2024-03-22T03:10:44;26.42;;;8.55;;
81952;SDS011;71454;55.476;14.282;2024-03-22T03:13:10;24.83;;;8.23;;
81952;SDS011;71454;55.476;14.282;2024-03-22T03:15:36;27.02;;;8.80;;
81952;SDS011;71454;55.476;14.282;2024-03-22T03:18:01;26.98;;;9.75;;
81952;SDS011;71454;55.476;14.282;2024-03-22T03:20:26;25.45;;;8.98;;
81952;SDS011;71454;55.476;14.282;2024-03-22T03:22:52;25.58;;;10.45;;
81952;SDS011;71454;55.476;14.282;2024-03-22T03:25:17;32.17;;;11.32;;
81952;SDS011;71454;55.476;14.282;2024-03-22T03:27:42;25.50;;;10.50;;
81952;SDS011;71454;55.476;14.282;2024-03-22T03:30:07;32.40;;;10.05;;
81952;SDS011;71454;55.476;14.282;2024-03-22T03:32:33;29.52;;;11.10;;
81952;SDS011;71454;55.476;14.282;2024-03-22T03:34:58;33.08;;;9.98;;
81952;SDS011;71454;55.476;14.282;2024-03-22T03:37:23;31.95;;;11.50;;
81952;SDS011;71454;55.476;14.282;2024-03-22T03:39:49;36.25;;;11.82;;
81952;SDS011;71454;55.476;14.282;2024-03-22T03:42:14;38.53;;;13.15;;
81952;SDS011;71454;55.476;14.282;2024-03-22T03:44:39;33.50;;;11.88;;
81952;SDS011;71454;55.476;14.282;2024-03-22T03:47:06;45.33;;;13.27;;
81952;SDS011;71454;55.476;14.282;2024-03-22T03:49:31;33.17;;;12.82;;
81952;SDS011;71454;55.476;14.282;2024-03-22T03:51:57;40.03;;;15.17;;
81952;SDS011;71454;55.476;14.282;2024-03-22T03:54:22;35.07;;;14.07;;
81952;SDS011;71454;55.476;14.282;2024-03-22T03:56:47;41.70;;;14.25;;
81952;SDS011;71454;55.476;14.282;2024-03-22T03:59:13;38.90;;;14.20;;
81952;SDS011;71454;55.476;14.282;2024-03-22T04:01:38;37.05;;;13.70;;
81952;SDS011;71454;55.476;14.282;2024-03-22T04:04:03;41.90;;;15.15;;
81952;SDS011;71454;55.476;14.282;2024-03-22T04:06:29;35.72;;;14.15;;
81952;SDS011;71454;55.476;14.282;2024-03-22T04:08:54;42.15;;;15.73;;
81952;SDS011;71454;55.476;14.282;2024-03-22T04:11:19;32.63;;;12.73;;
81952;SDS011;71454;55.476;14.282;2024-03-22T04:13:45;35.85;;;13.25;;
81952;SDS011;71454;55.476;14.282;2024-03-22T04:16:10;35.78;;;13.80;;
81952;SDS011;71454;55.476;14.282;2024-03-22T04:18:35;38.50;;;14.57;;
81952;SDS011;71454;55.476;14.282;2024-03-22T04:21:01;42.40;;;16.17;;
81952;SDS011;71454;55.476;14.282;2024-03-22T04:23:26;40.08;;;14.43;;
81952;SDS011;71454;55.476;14.282;2024-03-22T04:25:55;35.22;;;13.57;;
81952;SDS011;71454;55.476;14.282;2024-03-22T04:28:21;40.35;;;14.43;;
81952;SDS011;71454;55.476;14.282;2024-03-22T04:30:59;35.47;;;13.70;;
81952;SDS011;71454;55.476;14.282;2024-03-22T04:33:25;36.13;;;14.05;;
81952;SDS011;71454;55.476;14.282;2024-03-22T04:35:50;33.80;;;13.75;;
81952;SDS011;71454;55.476;14.282;2024-03-22T04:38:15;37.67;;;14.23;;
81952;SDS011;71454;55.476;14.282;2024-03-22T04:40:41;41.40;;;14.48;;
81952;SDS011;71454;55.476;14.282;2024-03-22T04:43:07;41.83;;;15.00;;
81952;SDS011;71454;55.476;14.282;2024-03-22T04:45:33;41.03;;;15.40;;
81952;SDS011;71454;55.476;14.282;2024-03-22T04:47:58;39.95;;;15.05;;
81952;SDS011;71454;55.476;14.282;2024-03-22T04:50:24;37.58;;;13.88;;
81952;SDS011;71454;55.476;14.282;2024-03-22T04:52:49;41.40;;;16.00;;
81952;SDS011;71454;55.476;14.282;2024-03-22T04:55:14;41.22;;;13.75;;
81952;SDS011;71454;55.476;14.282;2024-03-22T04:57:40;37.08;;;14.90;;
81952;SDS011;71454;55.476;14.282;2024-03-22T05:00:05;35.65;;;13.85;;
81952;SDS011;71454;55.476;14.282;2024-03-22T05:02:33;39.67;;;13.02;;
81952;SDS011;71454;55.476;14.282;2024-03-22T05:04:58;38.13;;;15.23;;
81952;SDS011;71454;55.476;14.282;2024-03-22T05:07:24;35.63;;;12.98;;
81952;SDS011;71454;55.476;14.282;2024-03-22T05:09:49;37.38;;;13.48;;
81952;SDS011;71454;55.476;14.282;2024-03-22T05:12:14;33.28;;;12.90;;
81952;SDS011;71454;55.476;14.282;2024-03-22T05:14:40;46.05;;;14.98;;
81952;SDS011;71454;55.476;14.282;2024-03-22T05:17:05;35.67;;;14.20;;
81952;SDS011;71454;55.476;14.282;2024-03-22T05:19:30;39.70;;;14.18;;
81952;SDS011;71454;55.476;14.282;2024-03-22T05:21:56;34.47;;;13.52;;
81952;SDS011;71454;55.476;14.282;2024-03-22T05:24:21;36.33;;;13.63;;
81952;SDS011;71454;55.476;14.282;2024-03-22T05:26:47;42.58;;;13.90;;
81952;SDS011;71454;55.476;14.282;2024-03-22T05:29:12;41.83;;;14.88;;
81952;SDS011;71454;55.476;14.282;2024-03-22T05:31:45;36.03;;;13.27;;
81952;SDS011;71454;55.476;14.282;2024-03-22T05:34:10;43.38;;;15.60;;
81952;SDS011;71454;55.476;14.282;2024-03-22T05:36:36;41.13;;;13.77;;
81952;SDS011;71454;55.476;14.282;2024-03-22T05:39:02;37.20;;;13.63;;
81952;SDS011;71454;55.476;14.282;2024-03-22T05:41:27;35.10;;;14.85;;
81952;SDS011;71454;55.476;14.282;2024-03-22T05:43:53;38.45;;;14.25;;
81952;SDS011;71454;55.476;14.282;2024-03-22T05:46:19;36.90;;;13.80;;
81952;SDS011;71454;55.476;14.282;2024-03-22T05:48:44;37.22;;;13.50;;
81952;SDS011;71454;55.476;14.282;2024-03-22T05:51:09;33.58;;;13.57;;
81952;SDS011;71454;55.476;14.282;2024-03-22T05:53:35;32.53;;;13.45;;
81952;SDS011;71454;55.476;14.282;2024-03-22T05:56:00;36.92;;;14.90;;
81952;SDS011;71454;55.476;14.282;2024-03-22T05:58:26;41.10;;;13.85;;
81952;SDS011;71454;55.476;14.282;2024-03-22T06:00:51;34.85;;;12.23;;
81952;SDS011;71454;55.476;14.282;2024-03-22T06:03:18;31.10;;;12.38;;
81952;SDS011;71454;55.476;14.282;2024-03-22T06:05:43;36.55;;;12.65;;
81952;SDS011;71454;55.476;14.282;2024-03-22T06:08:08;35.20;;;13.73;;
81952;SDS011;71454;55.476;14.282;2024-03-22T06:10:34;36.38;;;13.55;;
81952;SDS011;71454;55.476;14.282;2024-03-22T06:12:59;36.58;;;14.73;;
81952;SDS011;71454;55.476;14.282;2024-03-22T06:15:24;33.30;;;14.25;;
81952;SDS011;71454;55.476;14.282;2024-03-22T06:17:50;32.13;;;12.63;;
81952;SDS011;71454;55.476;14.282;2024-03-22T06:20:16;34.88;;;12.95;;
81952;SDS011;71454;55.476;14.282;2024-03-22T06:22:41;37.85;;;13.82;;
81952;SDS011;71454;55.476;14.282;2024-03-22T06:25:06;37.00;;;12.73;;
81952;SDS011;71454;55.476;14.282;2024-03-22T06:27:32;36.20;;;14.13;;
81952;SDS011;71454;55.476;14.282;2024-03-22T06:29:57;33.30;;;13.05;;
81952;SDS011;71454;55.476;14.282;2024-03-22T06:32:22;36.83;;;13.70;;
81952;SDS011;71454;55.476;14.282;2024-03-22T06:34:48;34.08;;;13.45;;
81952;SDS011;71454;55.476;14.282;2024-03-22T06:37:13;39.78;;;14.90;;
81952;SDS011;71454;55.476;14.282;2024-03-22T06:39:38;37.80;;;14.23;;
81952;SDS011;71454;55.476;14.282;2024-03-22T06:42:04;33.22;;;12.73;;
81952;SDS011;71454;55.476;14.282;2024-03-22T06:44:29;35.08;;;13.90;;
81952;SDS011;71454;55.476;14.282;2024-03-22T06:46:54;33.35;;;13.45;;
81952;SDS011;71454;55.476;14.282;2024-03-22T06:49:20;30.42;;;13.27;;
81952;SDS011;71454;55.476;14.282;2024-03-22T06:51:45;27.15;;;11.40;;
81952;SDS011;71454;55.476;14.282;2024-03-22T06:54:10;26.77;;;10.00;;
81952;SDS011;71454;55.476;14.282;2024-03-22T06:56:36;27.37;;;11.67;;
81952;SDS011;71454;55.476;14.282;2024-03-22T06:59:01;31.98;;;12.68;;
81952;SDS011;71454;55.476;14.282;2024-03-22T07:01:26;33.93;;;13.47;;
81952;SDS011;71454;55.476;14.282;2024-03-22T07:03:54;31.48;;;12.43;;
81952;SDS011;71454;55.476;14.282;2024-03-22T07:06:20;26.67;;;11.20;;
81952;SDS011;71454;55.476;14.282;2024-03-22T07:08:45;31.95;;;12.98;;
81952;SDS011;71454;55.476;14.282;2024-03-22T07:11:10;37.10;;;13.40;;
81952;SDS011;71454;55.476;14.282;2024-03-22T07:13:36;31.37;;;11.93;;
81952;SDS011;71454;55.476;14.282;2024-03-22T07:16:02;30.08;;;13.80;;
81952;SDS011;71454;55.476;14.282;2024-03-22T07:18:28;35.72;;;12.73;;
81952;SDS011;71454;55.476;14.282;2024-03-22T07:20:53;35.05;;;13.38;;
81952;SDS011;71454;55.476;14.282;2024-03-22T07:23:18;34.17;;;14.25;;
81952;SDS011;71454;55.476;14.282;2024-03-22T07:25:44;39.25;;;15.35;;
81952;SDS011;71454;55.476;14.282;2024-03-22T07:28:11;35.88;;;14.73;;
81952;SDS011;71454;55.476;14.282;2024-03-22T07:30:36;40.67;;;14.40;;
81952;SDS011;71454;55.476;14.282;2024-03-22T07:33:02;37.88;;;14.13;;
81952;SDS011;71454;55.476;14.282;2024-03-22T07:35:27;39.10;;;15.40;;
81952;SDS011;71454;55.476;14.282;2024-03-22T07:37:52;41.53;;;14.63;;
81952;SDS011;71454;55.476;14.282;2024-03-22T07:40:18;39.30;;;13.70;;
81952;SDS011;71454;55.476;14.282;2024-03-22T07:42:45;39.03;;;14.75;;
81952;SDS011;71454;55.476;14.282;2024-03-22T07:45:10;39.03;;;15.75;;
81952;SDS011;71454;55.476;14.282;2024-03-22T07:47:35;35.17;;;14.00;;
81952;SDS011;71454;55.476;14.282;2024-03-22T07:50:02;41.22;;;16.08;;
81952;SDS011;71454;55.476;14.282;2024-03-22T07:52:27;39.30;;;14.90;;
81952;SDS011;71454;55.476;14.282;2024-03-22T07:54:53;36.60;;;15.35;;
81952;SDS011;71454;55.476;14.282;2024-03-22T07:57:18;39.03;;;15.15;;
81952;SDS011;71454;55.476;14.282;2024-03-22T07:59:45;40.13;;;14.82;;
81952;SDS011;71454;55.476;14.282;2024-03-22T08:02:10;38.47;;;14.05;;
81952;SDS011;71454;55.476;14.282;2024-03-22T08:04:36;31.83;;;12.18;;
81952;SDS011;71454;55.476;14.282;2024-03-22T08:07:01;33.83;;;12.88;;
81952;SDS011;71454;55.476;14.282;2024-03-22T08:09:26;35.60;;;13.80;;
81952;SDS011;71454;55.476;14.282;2024-03-22T08:11:52;31.88;;;12.80;;
81952;SDS011;71454;55.476;14.282;2024-03-22T08:14:17;33.85;;;14.88;;
81952;SDS011;71454;55.476;14.282;2024-03-22T08:16:42;39.70;;;15.20;;
81952;SDS011;71454;55.476;14.282;2024-03-22T08:19:07;33.08;;;15.02;;
81952;SDS011;71454;55.476;14.282;2024-03-22T08:21:33;37.65;;;14.50;;
81952;SDS011;71454;55.476;14.282;2024-03-22T08:23:58;37.22;;;13.88;;
81952;SDS011;71454;55.476;14.282;2024-03-22T08:26:24;39.78;;;16.02;;
81952;SDS011;71454;55.476;14.282;2024-03-22T08:28:49;35.20;;;15.00;;
81952;SDS011;71454;55.476;14.282;2024-03-22T08:31:14;36.53;;;13.80;;
81952;SDS011;71454;55.476;14.282;2024-03-22T08:33:39;39.17;;;16.10;;
81952;SDS011;71454;55.476;14.282;2024-03-22T08:36:05;35.58;;;14.50;;
81952;SDS011;71454;55.476;14.282;2024-03-22T08:38:30;40.03;;;13.90;;
81952;SDS011;71454;55.476;14.282;2024-03-22T08:40:55;38.47;;;16.38;;
81952;SDS011;71454;55.476;14.282;2024-03-22T08:43:21;41.00;;;14.98;;
81952;SDS011;71454;55.476;14.282;2024-03-22T08:45:47;34.67;;;15.25;;
81952;SDS011;71454;55.476;14.282;2024-03-22T08:48:13;36.92;;;15.27;;
81952;SDS011;71454;55.476;14.282;2024-03-22T08:50:38;40.03;;;15.10;;
81952;SDS011;71454;55.476;14.282;2024-03-22T08:53:03;43.50;;;15.82;;
81952;SDS011;71454;55.476;14.282;2024-03-22T08:55:29;37.80;;;15.52;;
81952;SDS011;71454;55.476;14.282;2024-03-22T08:57:57;36.90;;;14.45;;
81952;SDS011;71454;55.476;14.282;2024-03-22T09:00:22;41.97;;;16.27;;
81952;SDS011;71454;55.476;14.282;2024-03-22T09:02:48;38.97;;;13.63;;
81952;SDS011;71454;55.476;14.282;2024-03-22T09:05:14;38.35;;;15.10;;
81952;SDS011;71454;55.476;14.282;2024-03-22T09:07:40;37.10;;;16.45;;
81952;SDS011;71454;55.476;14.282;2024-03-22T09:10:05;39.47;;;15.90;;
81952;SDS011;71454;55.476;14.282;2024-03-22T09:12:31;43.78;;;16.65;;
81952;SDS011;71454;55.476;14.282;2024-03-22T09:14:56;40.95;;;16.55;;
81952;SDS011;71454;55.476;14.282;2024-03-22T09:17:22;42.70;;;16.42;;
81952;SDS011;71454;55.476;14.282;2024-03-22T09:19:47;50.38;;;16.90;;
81952;SDS011;71454;55.476;14.282;2024-03-22T09:22:12;43.33;;;17.55;;
81952;SDS011;71454;55.476;14.282;2024-03-22T09:24:38;41.20;;;15.95;;
81952;SDS011;71454;55.476;14.282;2024-03-22T09:27:03;37.80;;;16.27;;
81952;SDS011;71454;55.476;14.282;2024-03-22T09:29:33;44.10;;;17.65;;
81952;SDS011;71454;55.476;14.282;2024-03-22T09:31:59;52.22;;;18.90;;
81952;SDS011;71454;55.476;14.282;2024-03-22T09:34:24;57.22;;;21.45;;
81952;SDS011;71454;55.476;14.282;2024-03-22T09:36:49;59.78;;;20.98;;
81952;SDS011;71454;55.476;14.282;2024-03-22T09:39:15;49.45;;;18.45;;
81952;SDS011;71454;55.476;14.282;2024-03-22T09:41:43;57.13;;;19.48;;
81952;SDS011;71454;55.476;14.282;2024-03-22T09:44:11;52.58;;;19.45;;
81952;SDS011;71454;55.476;14.282;2024-03-22T09:46:38;43.35;;;17.10;;
81952;SDS011;71454;55.476;14.282;2024-03-22T09:49:04;49.20;;;19.20;;
81952;SDS011;71454;55.476;14.282;2024-03-22T09:51:30;50.58;;;19.40;;
81952;SDS011;71454;55.476;14.282;2024-03-22T09:53:56;57.45;;;21.30;;
81952;SDS011;71454;55.476;14.282;2024-03-22T09:56:22;49.55;;;19.42;;
81952;SDS011;71454;55.476;14.282;2024-03-22T09:58:49;55.17;;;20.48;;
81952;SDS011;71454;55.476;14.282;2024-03-22T10:01:14;49.83;;;20.23;;
81952;SDS011;71454;55.476;14.282;2024-03-22T10:03:40;57.63;;;19.05;;
81952;SDS011;71454;55.476;14.282;2024-03-22T10:06:06;52.28;;;21.35;;
81952;SDS011;71454;55.476;14.282;2024-03-22T10:08:31;55.35;;;20.80;;
81952;SDS011;71454;55.476;14.282;2024-03-22T10:10:57;54.95;;;20.02;;
81952;SDS011;71454;55.476;14.282;2024-03-22T10:13:22;54.13;;;20.45;;
81952;SDS011;71454;55.476;14.282;2024-03-22T10:15:47;59.00;;;21.05;;
81952;SDS011;71454;55.476;14.282;2024-03-22T10:18:14;56.05;;;20.58;;
81952;SDS011;71454;55.476;14.282;2024-03-22T10:20:40;49.90;;;20.08;;
81952;SDS011;71454;55.476;14.282;2024-03-22T10:23:05;55.30;;;22.35;;
81952;SDS011;71454;55.476;14.282;2024-03-22T10:25:32;54.92;;;20.67;;
81952;SDS011;71454;55.476;14.282;2024-03-22T10:27:58;55.03;;;21.20;;
81952;SDS011;71454;55.476;14.282;2024-03-22T10:30:24;58.65;;;22.35;;
81952;SDS011;71454;55.476;14.282;2024-03-22T10:32:50;57.30;;;21.25;;
81952;SDS011;71454;55.476;14.282;2024-03-22T10:35:16;53.95;;;19.92;;
81952;SDS011;71454;55.476;14.282;2024-03-22T10:37:41;56.97;;;20.88;;
81952;SDS011;71454;55.476;14.282;2024-03-22T10:40:07;61.15;;;21.98;;
81952;SDS011;71454;55.476;14.282;2024-03-22T10:42:36;53.53;;;21.40;;
81952;SDS011;71454;55.476;14.282;2024-03-22T10:45:02;61.58;;;21.50;;
81952;SDS011;71454;55.476;14.282;2024-03-22T10:47:29;56.63;;;21.90;;
81952;SDS011;71454;55.476;14.282;2024-03-22T10:49:56;59.40;;;22.65;;
81952;SDS011;71454;55.476;14.282;2024-03-22T10:52:25;52.40;;;20.15;;
81952;SDS011;71454;55.476;14.282;2024-03-22T10:54:50;57.22;;;21.70;;
81952;SDS011;71454;55.476;14.282;2024-03-22T10:57:16;55.65;;;22.45;;
81952;SDS011;71454;55.476;14.282;2024-03-22T10:59:42;56.15;;;21.70;;
81952;SDS011;71454;55.476;14.282;2024-03-22T11:02:10;53.35;;;20.33;;
81952;SDS011;71454;55.476;14.282;2024-03-22T11:04:35;54.47;;;20.48;;
81952;SDS011;71454;55.476;14.282;2024-03-22T11:07:01;52.50;;;21.02;;
81952;SDS011;71454;55.476;14.282;2024-03-22T11:09:27;54.25;;;20.92;;
81952;SDS011;71454;55.476;14.282;2024-03-22T11:11:53;62.88;;;22.98;;
81952;SDS011;71454;55.476;14.282;2024-03-22T11:14:19;53.47;;;21.00;;
81952;SDS011;71454;55.476;14.282;2024-03-22T11:16:45;50.38;;;20.92;;
81952;SDS011;71454;55.476;14.282;2024-03-22T11:19:11;56.60;;;22.48;;
81952;SDS011;71454;55.476;14.282;2024-03-22T11:21:37;49.35;;;19.02;;
81952;SDS011;71454;55.476;14.282;2024-03-22T11:24:03;61.25;;;23.05;;
81952;SDS011;71454;55.476;14.282;2024-03-22T11:26:28;56.92;;;21.05;;
81952;SDS011;71454;55.476;14.282;2024-03-22T11:28:54;53.72;;;22.45;;
81952;SDS011;71454;55.476;14.282;2024-03-22T11:31:19;57.20;;;21.63;;
81952;SDS011;71454;55.476;14.282;2024-03-22T11:33:47;55.33;;;23.42;;
81952;SDS011;71454;55.476;14.282;2024-03-22T11:36:12;50.72;;;20.92;;
81952;SDS011;71454;55.476;14.282;2024-03-22T11:38:38;60.85;;;21.90;;
81952;SDS011;71454;55.476;14.282;2024-03-22T11:41:04;52.50;;;21.17;;
81952;SDS011;71454;55.476;14.282;2024-03-22T11:43:29;50.58;;;22.80;;
81952;SDS011;71454;55.476;14.282;2024-03-22T11:45:55;50.30;;;19.85;;
81952;SDS011;71454;55.476;14.282;2024-03-22T11:48:21;49.22;;;19.92;;
81952;SDS011;71454;55.476;14.282;2024-03-22T11:50:47;48.78;;;20.77;;
81952;SDS011;71454;55.476;14.282;2024-03-22T11:53:12;52.15;;;20.17;;
81952;SDS011;71454;55.476;14.282;2024-03-22T11:55:37;49.30;;;19.20;;
81952;SDS011;71454;55.476;14.282;2024-03-22T11:58:03;45.20;;;20.35;;
81952;SDS011;71454;55.476;14.282;2024-03-22T12:00:28;47.90;;;21.73;;
81952;SDS011;71454;55.476;14.282;2024-03-22T12:02:53;47.13;;;20.33;;
81952;SDS011;71454;55.476;14.282;2024-03-22T12:05:20;49.63;;;20.40;;
81952;SDS011;71454;55.476;14.282;2024-03-22T12:07:45;48.92;;;20.65;;
81952;SDS011;71454;55.476;14.282;2024-03-22T12:10:11;50.42;;;21.85;;
81952;SDS011;71454;55.476;14.282;2024-03-22T12:12:36;50.67;;;20.80;;
81952;SDS011;71454;55.476;14.282;2024-03-22T12:15:02;51.38;;;20.35;;
81952;SDS011;71454;55.476;14.282;2024-03-22T12:17:27;52.80;;;21.00;;
81952;SDS011;71454;55.476;14.282;2024-03-22T12:19:52;50.28;;;20.83;;
81952;SDS011;71454;55.476;14.282;2024-03-22T12:22:18;51.83;;;21.30;;
81952;SDS011;71454;55.476;14.282;2024-03-22T12:24:43;49.92;;;20.35;;
81952;SDS011;71454;55.476;14.282;2024-03-22T12:27:08;54.03;;;21.83;;
81952;SDS011;71454;55.476;14.282;2024-03-22T12:29:34;48.25;;;19.38;;
81952;SDS011;71454;55.476;14.282;2024-03-22T12:32:00;48.03;;;22.05;;
81952;SDS011;71454;55.476;14.282;2024-03-22T12:34:27;52.40;;;20.88;;
81952;SDS011;71454;55.476;14.282;2024-03-22T12:36:52;47.72;;;19.48;;
81952;SDS011;71454;55.476;14.282;2024-03-22T12:39:17;54.38;;;22.38;;
81952;SDS011;71454;55.476;14.282;2024-03-22T12:41:43;49.90;;;20.83;;
81952;SDS011;71454;55.476;14.282;2024-03-22T12:44:08;49.35;;;20.85;;
81952;SDS011;71454;55.476;14.282;2024-03-22T12:46:34;50.30;;;21.05;;
81952;SDS011;71454;55.476;14.282;2024-03-22T12:48:59;51.75;;;20.17;;
81952;SDS011;71454;55.476;14.282;2024-03-22T12:51:24;41.15;;;19.05;;
81952;SDS011;71454;55.476;14.282;2024-03-22T12:53:50;43.67;;;18.50;;
81952;SDS011;71454;55.476;14.282;2024-03-22T12:56:16;46.30;;;19.77;;
81952;SDS011;71454;55.476;14.282;2024-03-22T12:58:41;47.15;;;20.77;;
81952;SDS011;71454;55.476;14.282;2024-03-22T13:01:06;43.75;;;18.05;;
81952;SDS011;71454;55.476;14.282;2024-03-22T13:03:33;44.67;;;18.67;;
81952;SDS011;71454;55.476;14.282;2024-03-22T13:05:58;41.25;;;18.40;;
81952;SDS011;71454;55.476;14.282;2024-03-22T13:08:23;47.08;;;18.73;;
81952;SDS011;71454;55.476;14.282;2024-03-22T13:10:49;44.80;;;19.02;;
81952;SDS011;71454;55.476;14.282;2024-03-22T13:13:14;45.50;;;19.52;;
81952;SDS011;71454;55.476;14.282;2024-03-22T13:15:41;46.97;;;20.08;;
81952;SDS011;71454;55.476;14.282;2024-03-22T13:18:07;48.30;;;19.95;;
81952;SDS011;71454;55.476;14.282;2024-03-22T13:20:32;44.22;;;19.58;;
81952;SDS011;71454;55.476;14.282;2024-03-22T13:22:58;42.97;;;19.23;;
81952;SDS011;71454;55.476;14.282;2024-03-22T13:25:23;44.08;;;19.90;;
81952;SDS011;71454;55.476;14.282;2024-03-22T13:27:49;53.30;;;20.55;;
81952;SDS011;71454;55.476;14.282;2024-03-22T13:30:14;49.08;;;20.45;;
81952;SDS011;71454;55.476;14.282;2024-03-22T13:32:43;49.33;;;19.48;;
81952;SDS011;71454;55.476;14.282;2024-03-22T13:35:08;49.35;;;20.08;;
81952;SDS011;71454;55.476;14.282;2024-03-22T13:37:34;38.67;;;17.25;;
81952;SDS011;71454;55.476;14.282;2024-03-22T13:39:59;43.03;;;18.25;;
81952;SDS011;71454;55.476;14.282;2024-03-22T13:42:25;43.67;;;17.90;;
81952;SDS011;71454;55.476;14.282;2024-03-22T13:44:50;43.47;;;17.88;;
81952;SDS011;71454;55.476;14.282;2024-03-22T13:47:16;40.15;;;16.77;;
81952;SDS011;71454;55.476;14.282;2024-03-22T13:49:42;40.42;;;17.75;;
81952;SDS011;71454;55.476;14.282;2024-03-22T13:52:08;38.25;;;17.42;;
81952;SDS011;71454;55.476;14.282;2024-03-22T13:54:34;43.35;;;18.02;;
81952;SDS011;71454;55.476;14.282;2024-03-22T13:56:59;41.92;;;16.63;;
81952;SDS011;71454;55.476;14.282;2024-03-22T13:59:25;44.30;;;17.83;;
81952;SDS011;71454;55.476;14.282;2024-03-22T14:01:51;39.45;;;16.13;;